createdAt,value
2019-01-29T00:02:01.919Z,463.07
2019-01-29T00:04:32.345Z,435.53
2019-01-29T00:07:02.630Z,398.67
2019-01-29T00:09:32.855Z,437.30
2019-01-29T00:12:03.305Z,413.37
2019-01-29T00:14:33.709Z,358.50
2019-01-29T00:17:03.968Z,385.00
2019-01-29T00:19:34.165Z,370.47
2019-01-29T00:22:04.498Z,311.83
2019-01-29T00:24:34.831Z,336.80
2019-01-29T00:27:05.418Z,317.13
2019-01-29T00:29:35.637Z,307.47
2019-01-29T00:32:06.111Z,309.23
2019-01-29T00:34:36.428Z,327.33
2019-01-29T00:37:06.880Z,307.87
2019-01-29T00:39:37.180Z,313.17
2019-01-29T00:42:08.627Z,320.40
2019-01-29T00:44:38.953Z,352.73
2019-01-29T00:47:09.223Z,348.20
2019-01-29T00:49:39.601Z,329.53
2019-01-29T00:52:09.934Z,369.23
2019-01-29T00:54:40.162Z,330.87
2019-01-29T00:57:10.374Z,352.80
2019-01-29T00:59:40.594Z,340.13
2019-01-29T01:02:10.922Z,334.43
2019-01-29T01:04:41.248Z,343.63
2019-01-29T01:07:11.524Z,341.17
2019-01-29T01:09:41.808Z,351.50
2019-01-29T01:12:12.082Z,328.43
2019-01-29T01:14:42.394Z,307.40
2019-01-29T01:17:12.869Z,283.10
2019-01-29T01:19:43.188Z,295.60
2019-01-29T01:22:13.422Z,316.17
2019-01-29T01:24:43.780Z,269.87
2019-01-29T01:27:14.220Z,296.70
2019-01-29T01:29:44.482Z,337.77
2019-01-29T01:32:14.742Z,282.00
2019-01-29T01:34:45.241Z,291.47
2019-01-29T01:37:15.662Z,311.23
2019-01-29T01:39:46.091Z,276.30
2019-01-29T01:42:16.408Z,285.33
2019-01-29T01:44:47.115Z,300.90
2019-01-29T01:47:17.518Z,301.43
2019-01-29T01:49:47.771Z,275.27
2019-01-29T01:52:18.531Z,287.23
2019-01-29T01:54:48.803Z,311.23
2019-01-29T01:57:19.105Z,311.33
2019-01-29T01:59:49.334Z,356.53
2019-01-29T02:02:19.602Z,384.80
2019-01-29T02:04:49.928Z,356.03
2019-01-29T02:07:20.090Z,419.47
2019-01-29T02:09:50.480Z,432.87
2019-01-29T02:12:20.923Z,624.33
2019-01-29T02:14:51.337Z,437.77
2019-01-29T02:17:22.565Z,445.57
2019-01-29T02:19:52.952Z,532.57
2019-01-29T02:22:23.229Z,503.90
2019-01-29T02:24:53.550Z,418.17
2019-01-29T02:27:23.991Z,471.37
2019-01-29T02:29:54.307Z,467.00
2019-01-29T02:32:24.661Z,364.47
2019-01-29T02:34:55.010Z,356.03
2019-01-29T02:37:25.217Z,458.77
2019-01-29T02:39:55.663Z,415.13
2019-01-29T02:42:26.285Z,505.73
2019-01-29T02:44:56.502Z,441.73
2019-01-29T02:47:26.766Z,549.10
2019-01-29T02:49:57.102Z,512.67
2019-01-29T02:52:27.288Z,412.77
2019-01-29T02:54:57.646Z,408.77
2019-01-29T02:57:28.281Z,433.53
2019-01-29T02:59:58.710Z,419.20
2019-01-29T03:02:29.244Z,387.97
2019-01-29T03:04:59.490Z,425.03
2019-01-29T03:07:29.695Z,359.23
2019-01-29T03:10:00.080Z,395.37
2019-01-29T03:12:30.610Z,385.77
2019-01-29T03:15:00.998Z,359.43
2019-01-29T03:17:31.335Z,317.57
2019-01-29T03:20:01.819Z,366.00
2019-01-29T03:22:32.030Z,393.87
2019-01-29T03:25:02.394Z,465.43
2019-01-29T03:27:32.840Z,467.27
2019-01-29T03:30:03.253Z,408.10
2019-01-29T03:32:33.485Z,554.27
2019-01-29T03:35:04.071Z,549.87
2019-01-29T03:37:34.384Z,589.80
2019-01-29T03:40:06.427Z,456.33
2019-01-29T03:42:36.732Z,513.90
2019-01-29T03:45:08.886Z,408.33
2019-01-29T03:47:39.249Z,410.60
2019-01-29T03:50:11.954Z,393.97
2019-01-29T03:52:42.268Z,382.90
2019-01-29T03:55:12.776Z,376.67
2019-01-29T03:57:43.098Z,390.10
2019-01-29T04:00:22.080Z,343.17
2019-01-29T04:02:52.459Z,306.40
2019-01-29T04:05:22.772Z,318.70
2019-01-29T04:07:53.070Z,314.63
2019-01-29T04:10:23.643Z,301.57
2019-01-29T04:12:53.942Z,290.70
2019-01-29T04:15:24.297Z,303.43
2019-01-29T04:17:58.721Z,276.73
2019-01-29T04:20:29.024Z,278.20
2019-01-29T04:22:59.379Z,257.00
2019-01-29T04:25:29.795Z,249.23
2019-01-29T04:28:00.329Z,265.07
2019-01-29T04:30:30.644Z,245.20
2019-01-29T04:33:01.030Z,245.87
2019-01-29T04:35:31.334Z,249.47
2019-01-29T04:38:01.720Z,252.73
2019-01-29T04:40:32.051Z,246.33
2019-01-29T04:43:02.482Z,219.30
2019-01-29T04:45:32.842Z,234.80
2019-01-29T04:48:03.232Z,236.67
2019-01-29T04:50:33.494Z,210.13
2019-01-29T04:53:03.880Z,201.43
2019-01-29T04:55:34.277Z,197.90
2019-01-29T04:58:04.943Z,201.33
2019-01-29T05:00:35.268Z,195.93
2019-01-29T05:03:05.681Z,198.43
2019-01-29T05:05:35.967Z,194.87
2019-01-29T05:08:06.339Z,182.70
2019-01-29T05:10:36.549Z,179.87
2019-01-29T05:13:06.822Z,195.23
2019-01-29T05:15:37.141Z,179.47
2019-01-29T05:18:07.670Z,186.63
2019-01-29T05:20:37.933Z,181.10
2019-01-29T05:23:08.211Z,174.40
2019-01-29T05:25:38.611Z,169.53
2019-01-29T05:28:09.131Z,177.27
2019-01-29T05:30:39.454Z,165.73
2019-01-29T05:33:09.743Z,182.37
2019-01-29T05:35:40.241Z,175.33
2019-01-29T05:38:10.644Z,184.53
2019-01-29T05:40:40.877Z,183.40
2019-01-29T05:43:11.171Z,188.13
2019-01-29T05:45:41.519Z,192.37
2019-01-29T05:48:11.924Z,216.43
2019-01-29T05:50:42.472Z,212.47
2019-01-29T05:53:13.062Z,216.07
2019-01-29T05:55:43.236Z,227.73
2019-01-29T05:58:13.684Z,234.83
2019-01-29T06:00:44.152Z,220.13
2019-01-29T06:03:14.539Z,217.43
2019-01-29T06:05:44.880Z,244.73
2019-01-29T06:08:15.236Z,239.03
2019-01-29T06:10:45.580Z,231.17
2019-01-29T06:13:16.067Z,222.13
2019-01-29T06:15:46.512Z,197.73
2019-01-29T06:18:16.912Z,210.67
2019-01-29T06:20:47.347Z,201.23
2019-01-29T06:23:17.721Z,214.87
2019-01-29T06:25:48.010Z,196.27
2019-01-29T06:28:18.359Z,189.90
2019-01-29T06:30:48.791Z,204.00
2019-01-29T06:33:19.094Z,212.40
2019-01-29T06:35:49.444Z,221.87
2019-01-29T06:38:19.781Z,206.20
2019-01-29T06:40:51.679Z,214.00
2019-01-29T06:43:21.963Z,207.43
2019-01-29T06:45:52.745Z,210.93
2019-01-29T06:48:23.210Z,201.77
2019-01-29T06:50:53.506Z,193.73
2019-01-29T06:53:23.865Z,177.40
2019-01-29T06:55:54.149Z,174.47
2019-01-29T06:58:24.423Z,183.23
2019-01-29T07:00:54.650Z,164.50
2019-01-29T07:03:25.031Z,159.53
2019-01-29T07:05:55.259Z,165.33
2019-01-29T07:08:25.474Z,164.63
2019-01-29T07:10:55.765Z,156.57
2019-01-29T07:13:26.048Z,156.10
2019-01-29T07:16:07.012Z,144.63
2019-01-29T07:18:40.857Z,137.77
2019-01-29T07:21:11.231Z,149.10
2019-01-29T07:23:41.523Z,169.17
2019-01-29T07:26:11.774Z,153.97
2019-01-29T07:28:42.027Z,150.03
2019-01-29T07:31:12.313Z,162.93
2019-01-29T07:33:42.621Z,164.90
2019-01-29T07:36:13.072Z,168.87
2019-01-29T07:38:43.385Z,162.90
2019-01-29T07:41:13.675Z,157.07
2019-01-29T07:43:44.016Z,153.30
2019-01-29T07:46:14.443Z,142.57
2019-01-29T07:48:44.750Z,142.10
2019-01-29T07:51:15.042Z,136.50
2019-01-29T07:53:45.405Z,128.43
2019-01-29T07:56:15.747Z,124.70
2019-01-29T07:58:45.950Z,119.40
2019-01-29T08:01:16.223Z,115.70
2019-01-29T08:03:46.590Z,115.63
2019-01-29T08:06:16.869Z,113.87
2019-01-29T08:08:47.138Z,112.80
2019-01-29T08:11:17.386Z,111.03
2019-01-29T08:13:48.655Z,104.57
2019-01-29T08:16:18.996Z,110.13
2019-01-29T08:18:49.401Z,111.07
2019-01-29T08:21:19.774Z,108.33
2019-01-29T08:23:50.165Z,109.40
2019-01-29T08:26:20.493Z,110.73
2019-01-29T08:28:51.013Z,106.97
2019-01-29T08:31:21.553Z,103.10
2019-01-29T08:33:52.121Z,100.70
2019-01-29T08:36:22.421Z,103.27
2019-01-29T08:38:52.771Z,100.87
2019-01-29T08:41:23.070Z,107.73
2019-01-29T08:43:53.389Z,109.37
2019-01-29T08:46:23.693Z,101.73
2019-01-29T08:48:54.054Z,103.17
2019-01-29T08:51:24.431Z,107.50
2019-01-29T08:53:54.849Z,112.67
2019-01-29T08:56:25.184Z,116.20
2019-01-29T08:58:59.538Z,96.50
2019-01-29T09:01:32.499Z,107.93
2019-01-29T09:04:03.640Z,122.47
2019-01-29T09:06:33.852Z,115.17
2019-01-29T09:09:08.393Z,105.43
2019-01-29T09:11:39.139Z,101.27
2019-01-29T09:14:09.493Z,102.33
2019-01-29T09:16:39.775Z,87.40
2019-01-29T09:19:10.096Z,95.03
2019-01-29T09:21:41.374Z,101.57
2019-01-29T09:24:12.870Z,92.57
2019-01-29T09:26:43.155Z,94.20
2019-01-29T09:29:17.763Z,95.80
2019-01-29T09:31:45.581Z,195.37
2019-01-29T09:34:15.955Z,158.30
2019-01-29T09:36:46.464Z,134.07
2019-01-29T09:39:16.825Z,101.83
2019-01-29T09:41:47.145Z,87.97
2019-01-29T09:44:17.489Z,85.87
2019-01-29T09:46:47.850Z,95.60
2019-01-29T09:49:18.127Z,92.03
2019-01-29T09:51:48.483Z,84.33
2019-01-29T09:54:18.795Z,78.30
2019-01-29T09:56:56.001Z,81.37
2019-01-29T09:59:27.545Z,78.50
2019-01-29T10:01:57.842Z,80.77
2019-01-29T10:04:28.294Z,83.73
2019-01-29T10:06:58.634Z,83.40
2019-01-29T10:09:28.924Z,75.77
2019-01-29T10:11:59.256Z,70.97
2019-01-29T10:14:29.611Z,83.17
2019-01-29T10:16:59.959Z,69.53
2019-01-29T10:19:30.291Z,56.40
2019-01-29T10:22:00.609Z,100.70
2019-01-29T10:24:30.914Z,62.63
2019-01-29T10:27:01.254Z,63.43
2019-01-29T10:29:31.520Z,56.87
2019-01-29T10:32:01.801Z,61.50
2019-01-29T10:34:33.221Z,66.07
2019-01-29T10:37:03.670Z,58.77
2019-01-29T10:39:34.032Z,62.57
2019-01-29T10:42:05.969Z,67.80
2019-01-29T10:44:36.499Z,68.17
2019-01-29T10:47:06.813Z,64.13
2019-01-29T10:49:37.243Z,67.13
2019-01-29T10:52:07.443Z,63.40
2019-01-29T10:54:37.765Z,69.13
2019-01-29T10:57:10.099Z,69.97
2019-01-29T10:59:41.153Z,67.60
2019-01-29T11:02:11.391Z,67.00
2019-01-29T11:04:41.601Z,60.67
2019-01-29T11:07:11.920Z,59.97
2019-01-29T11:09:42.200Z,51.17
2019-01-29T11:12:12.722Z,57.83
2019-01-29T11:14:43.009Z,55.97
2019-01-29T11:17:13.275Z,55.60
2019-01-29T11:19:43.767Z,53.47
2019-01-29T11:22:14.123Z,57.07
2019-01-29T11:24:45.132Z,52.43
2019-01-29T11:27:15.714Z,51.70
2019-01-29T11:29:46.017Z,49.97
2019-01-29T11:32:16.340Z,54.47
2019-01-29T11:34:46.530Z,49.20
2019-01-29T11:37:16.731Z,57.27
2019-01-29T11:39:47.077Z,49.90
2019-01-29T11:42:17.320Z,51.60
2019-01-29T11:44:48.484Z,48.80
2019-01-29T11:47:18.714Z,47.47
2019-01-29T11:49:49.103Z,49.87
2019-01-29T11:52:19.471Z,46.70
2019-01-29T11:54:50.462Z,45.77
2019-01-29T11:57:21.077Z,49.30
2019-01-29T11:59:51.440Z,47.57
2019-01-29T12:02:28.233Z,47.70
2019-01-29T12:04:54.714Z,38.20
2019-01-29T12:07:24.940Z,42.33
2019-01-29T12:09:56.529Z,44.03
2019-01-29T12:12:27.683Z,39.07
2019-01-29T12:14:58.048Z,42.77
2019-01-29T12:17:28.344Z,37.73
2019-01-29T12:19:58.547Z,39.53
2019-01-29T12:22:28.811Z,36.20
2019-01-29T12:24:59.123Z,34.03
2019-01-29T12:27:29.461Z,32.60
2019-01-29T12:29:59.781Z,38.57
2019-01-29T12:32:30.124Z,39.07
2019-01-29T12:35:00.390Z,36.97
2019-01-29T12:37:30.821Z,40.80
2019-01-29T12:40:01.310Z,40.87
2019-01-29T12:42:31.613Z,37.43
2019-01-29T12:45:01.842Z,37.10
2019-01-29T12:47:33.481Z,43.33
2019-01-29T12:50:05.000Z,40.83
2019-01-29T12:52:44.911Z,40.10
2019-01-29T12:55:15.642Z,39.33
2019-01-29T12:57:46.045Z,42.57
2019-01-29T13:00:17.003Z,39.57
2019-01-29T13:02:47.244Z,41.33
2019-01-29T13:05:18.425Z,35.67
2019-01-29T13:07:48.630Z,41.63
2019-01-29T13:10:20.004Z,42.30
2019-01-29T13:12:50.285Z,40.30
2019-01-29T13:15:23.289Z,38.30
2019-01-29T13:17:53.570Z,36.90
2019-01-29T13:20:24.013Z,41.07
2019-01-29T13:22:54.431Z,38.93
2019-01-29T13:25:24.754Z,37.50
2019-01-29T13:27:55.083Z,34.13
2019-01-29T13:30:32.204Z,30.63
2019-01-29T13:33:02.579Z,38.57
2019-01-29T13:35:34.402Z,38.50
2019-01-29T13:38:05.546Z,37.63
2019-01-29T13:40:35.851Z,38.43
2019-01-29T13:43:06.453Z,35.43
2019-01-29T13:45:36.726Z,35.40
2019-01-29T13:48:06.964Z,38.67
2019-01-29T13:50:40.096Z,39.37
2019-01-29T13:53:10.524Z,40.87
2019-01-29T13:55:41.796Z,39.70
2019-01-29T13:58:12.133Z,42.47
2019-01-29T14:00:42.611Z,44.13
2019-01-29T14:03:13.431Z,42.30
2019-01-29T14:05:43.695Z,36.50
2019-01-29T14:08:14.131Z,42.30
2019-01-29T14:10:44.504Z,48.50
2019-01-29T14:13:14.947Z,44.93
2019-01-29T14:15:48.235Z,44.17
2019-01-29T14:18:20.225Z,41.00
2019-01-29T14:20:50.501Z,46.80
2019-01-29T14:23:20.759Z,43.43
2019-01-29T14:25:51.082Z,43.90
2019-01-29T14:28:21.359Z,45.43
2019-01-29T14:30:51.707Z,43.83
2019-01-29T14:33:21.974Z,45.60
2019-01-29T14:35:52.281Z,49.80
2019-01-29T14:39:01.406Z,46.57
2019-01-29T14:41:32.264Z,39.10
2019-01-29T14:44:02.835Z,49.40
2019-01-29T14:46:33.180Z,50.97
2019-01-29T14:49:03.684Z,54.63
2019-01-29T14:51:33.952Z,53.20
2019-01-29T14:54:04.358Z,53.00
2019-01-29T14:56:34.591Z,52.63
2019-01-29T14:59:05.021Z,57.03
2019-01-29T15:01:35.226Z,55.70
2019-01-29T15:04:05.919Z,48.83
2019-01-29T15:06:36.368Z,50.27
2019-01-29T15:09:10.797Z,60.37
2019-01-29T15:11:41.129Z,53.00
2019-01-29T15:14:11.599Z,52.40
2019-01-29T15:16:52.653Z,53.70
2019-01-29T15:19:25.305Z,50.67
2019-01-29T15:21:55.802Z,53.77
2019-01-29T15:24:26.076Z,58.13
2019-01-29T15:27:05.076Z,55.50
2019-01-29T15:29:28.522Z,50.43
2019-01-29T15:31:58.800Z,52.43
2019-01-29T15:34:29.100Z,53.27
2019-01-29T15:36:59.506Z,50.60
2019-01-29T15:39:29.956Z,51.27
2019-01-29T15:42:00.609Z,46.27
2019-01-29T15:44:31.239Z,44.60
2019-01-29T15:47:01.754Z,49.40
2019-01-29T15:49:32.726Z,48.33
2019-01-29T15:52:03.111Z,52.27
2019-01-29T15:54:33.489Z,52.53
2019-01-29T15:57:03.981Z,53.33
2019-01-29T15:59:42.616Z,54.17
2019-01-29T16:02:06.557Z,48.97
2019-01-29T16:04:36.966Z,50.83
2019-01-29T16:07:07.269Z,48.37
2019-01-29T16:09:37.750Z,52.07
2019-01-29T16:12:08.086Z,55.20
2019-01-29T16:14:38.601Z,54.63
2019-01-29T16:17:09.533Z,56.60
2019-01-29T16:19:39.937Z,51.13
2019-01-29T16:22:10.250Z,51.70
2019-01-29T16:24:41.003Z,53.10
2019-01-29T16:27:11.381Z,59.63
2019-01-29T16:29:41.741Z,54.37
2019-01-29T16:32:12.045Z,51.93
2019-01-29T16:34:42.413Z,57.30
2019-01-29T16:37:12.734Z,55.63
2019-01-29T16:39:43.057Z,55.30
2019-01-29T16:42:13.355Z,49.47
2019-01-29T16:44:43.809Z,62.47
2019-01-29T16:47:14.260Z,54.20
2019-01-29T16:49:44.690Z,56.90
2019-01-29T16:52:15.232Z,57.63
2019-01-29T16:54:45.659Z,50.87
2019-01-29T16:57:16.024Z,49.23
2019-01-29T16:59:46.437Z,53.73
2019-01-29T17:02:16.857Z,50.67
2019-01-29T17:04:47.324Z,55.67
2019-01-29T17:07:17.712Z,44.97
2019-01-29T17:09:48.661Z,45.37
2019-01-29T17:12:19.256Z,47.27
2019-01-29T17:14:49.980Z,49.27
2019-01-29T17:17:20.482Z,46.87
2019-01-29T17:19:51.132Z,46.83
2019-01-29T17:22:21.560Z,45.20
2019-01-29T17:24:51.965Z,42.53
2019-01-29T17:27:22.588Z,49.07
2019-01-29T17:29:53.079Z,42.33
2019-01-29T17:32:30.274Z,42.33
2019-01-29T17:34:55.502Z,46.03
2019-01-29T17:37:25.851Z,43.70
2019-01-29T17:39:57.288Z,43.40
2019-01-29T17:42:27.680Z,52.23
2019-01-29T17:44:58.419Z,45.07
2019-01-29T17:47:28.752Z,45.57
2019-01-29T17:49:59.041Z,46.47
2019-01-29T17:52:29.429Z,41.60
2019-01-29T17:54:59.665Z,44.00
2019-01-29T17:57:30.123Z,41.13
2019-01-29T18:00:00.379Z,42.03
2019-01-29T18:02:30.674Z,41.73
2019-01-29T18:05:00.895Z,42.77
2019-01-29T18:07:31.057Z,40.57
2019-01-29T18:10:01.341Z,42.63
2019-01-29T18:12:32.527Z,44.33
2019-01-29T18:15:03.472Z,43.27
2019-01-29T18:17:34.001Z,47.30
2019-01-29T18:20:04.501Z,49.10
2019-01-29T18:22:34.853Z,46.40
2019-01-29T18:29:36.296Z,42.23
2019-01-29T18:32:06.743Z,38.53
2019-01-29T18:34:37.281Z,39.50
2019-01-29T18:37:08.754Z,41.57
2019-01-29T18:39:39.081Z,41.07
2019-01-29T18:42:09.690Z,42.20
2019-01-29T18:44:40.067Z,39.67
2019-01-29T18:47:11.055Z,40.27
2019-01-29T18:49:41.691Z,41.10
2019-01-29T18:52:12.427Z,38.60
2019-01-29T18:54:42.844Z,41.80
2019-01-29T18:57:13.171Z,34.30
2019-01-29T18:59:43.725Z,38.00
2019-01-29T19:02:13.970Z,37.40
2019-01-29T19:04:45.295Z,36.40
2019-01-29T19:07:15.604Z,42.57
2019-01-29T19:09:45.924Z,37.43
2019-01-29T19:12:16.417Z,37.83
2019-01-29T19:14:46.730Z,35.50
2019-01-29T19:17:17.178Z,39.90
2019-01-29T19:19:48.029Z,37.03
2019-01-29T19:22:18.378Z,38.33
2019-01-29T19:24:48.690Z,41.47
2019-01-29T19:27:19.352Z,44.20
2019-01-29T19:29:49.652Z,44.10
2019-01-29T19:32:20.065Z,44.87
2019-01-29T19:34:50.411Z,49.60
2019-01-29T19:37:20.910Z,47.10
2019-01-29T19:39:52.419Z,47.07
2019-01-29T19:42:27.636Z,51.13
2019-01-29T19:44:54.948Z,48.80
2019-01-29T19:47:25.469Z,58.20
2019-01-29T19:49:57.741Z,53.10
2019-01-29T19:52:28.219Z,52.93
2019-01-29T19:54:59.739Z,53.63
2019-01-29T19:57:30.359Z,54.53
2019-01-29T20:00:00.798Z,52.73
2019-01-29T20:02:31.222Z,56.87
2019-01-29T20:05:01.989Z,56.03
2019-01-29T20:07:33.347Z,55.73
2019-01-29T20:10:04.077Z,53.40
2019-01-29T20:12:34.698Z,54.60
2019-01-29T20:15:06.902Z,56.13
2019-01-29T20:23:07.992Z,48.93
2019-01-29T20:25:44.286Z,50.73
2019-01-29T20:28:14.976Z,53.33
2019-01-29T20:34:54.852Z,46.60
2019-01-29T20:37:25.247Z,48.57
2019-01-29T20:39:58.084Z,45.30
2019-01-29T20:43:51.986Z,48.87
2019-01-29T20:48:35.095Z,44.33
2019-01-29T20:51:06.236Z,51.40
2019-01-29T20:53:36.472Z,50.80
2019-01-29T20:56:07.046Z,50.07
2019-01-29T20:58:37.439Z,51.67
2019-01-29T21:01:07.659Z,48.73
2019-01-29T21:03:38.289Z,53.77
2019-01-29T21:06:08.812Z,55.03
2019-01-29T21:08:39.262Z,54.70
2019-01-29T21:11:09.411Z,55.10
2019-01-29T21:13:39.733Z,59.47
2019-01-29T21:16:10.124Z,56.53
2019-01-29T21:18:40.399Z,55.57
2019-01-29T21:21:10.644Z,53.53
2019-01-29T21:23:40.885Z,53.27
2019-01-29T21:26:11.264Z,58.83
2019-01-29T21:28:41.543Z,49.53
2019-01-29T21:31:11.863Z,52.40
2019-01-29T21:33:42.253Z,52.87
2019-01-29T21:36:12.537Z,53.30
2019-01-29T21:38:42.790Z,51.80
2019-01-29T21:41:13.075Z,53.97
2019-01-29T21:43:43.324Z,55.50
2019-01-29T21:46:13.583Z,56.53
2019-01-29T21:48:43.841Z,50.30
2019-01-29T21:51:14.202Z,61.17
2019-01-29T21:53:45.486Z,56.83
2019-01-29T21:56:15.732Z,55.93
2019-01-29T21:58:46.002Z,60.10
2019-01-29T22:01:19.641Z,74.87
2019-01-29T22:03:50.065Z,89.13
2019-01-29T22:06:20.314Z,81.03
2019-01-29T22:08:50.625Z,66.97
2019-01-29T22:11:20.839Z,63.47
2019-01-29T22:13:51.259Z,66.37
2019-01-29T22:16:21.465Z,62.57
2019-01-29T22:18:51.792Z,60.13
2019-01-29T22:21:21.971Z,66.87
2019-01-29T22:23:56.243Z,61.63
2019-01-29T22:26:26.680Z,58.77
2019-01-29T22:28:56.850Z,61.87
2019-01-29T22:31:27.214Z,59.23
2019-01-29T22:33:57.432Z,63.03
2019-01-29T22:36:27.768Z,59.27
2019-01-29T22:38:57.988Z,54.90
2019-01-29T22:41:28.225Z,57.40
2019-01-29T22:43:58.471Z,54.73
2019-01-29T22:46:29.046Z,52.63
2019-01-29T22:48:59.277Z,61.30
2019-01-29T22:51:29.501Z,57.03
2019-01-29T22:53:59.765Z,54.13
2019-01-29T22:56:29.931Z,58.17
2019-01-29T22:59:00.188Z,63.23
2019-01-29T23:01:40.237Z,57.97
2019-01-29T23:04:20.092Z,55.40
2019-01-29T23:06:59.418Z,58.73
2019-01-29T23:09:29.722Z,60.43
2019-01-29T23:12:00.084Z,55.83
2019-01-29T23:14:32.304Z,58.00
2019-01-29T23:17:02.517Z,57.53
2019-01-29T23:19:32.965Z,60.27
2019-01-29T23:22:03.504Z,57.37
2019-01-29T23:24:33.833Z,60.50
2019-01-29T23:27:04.214Z,64.13
2019-01-29T23:29:43.228Z,60.40
2019-01-29T23:32:06.534Z,59.67
2019-01-29T23:34:36.766Z,57.13
2019-01-29T23:37:07.185Z,57.70
2019-01-29T23:39:37.503Z,54.67
2019-01-29T23:42:07.942Z,56.93
2019-01-29T23:44:38.139Z,58.97
2019-01-29T23:47:08.350Z,57.30
2019-01-29T23:49:38.620Z,62.67
2019-01-29T23:52:08.893Z,62.93
2019-01-29T23:54:39.165Z,63.60
2019-01-29T23:57:09.446Z,62.17
2019-01-29T23:59:39.744Z,66.17
